sensor_id;sensor_type;location;lat;lon;timestamp;temperature;humidity
22249;DHT22;67538;52.180;5.646;2023-05-10T00:02:22;12.90;99.90
22249;DHT22;67538;52.180;5.646;2023-05-10T00:04:50;12.90;99.90
22249;DHT22;67538;52.180;5.646;2023-05-10T00:07:17;12.90;99.90
22249;DHT22;67538;52.180;5.646;2023-05-10T00:09:45;12.90;99.90
22249;DHT22;67538;52.180;5.646;2023-05-10T00:12:12;12.90;99.90
22249;DHT22;67538;52.180;5.646;2023-05-10T00:14:40;12.90;99.90
22249;DHT22;67538;52.180;5.646;2023-05-10T00:17:07;12.90;99.90
22249;DHT22;67538;52.180;5.646;2023-05-10T00:19:34;12.90;99.90
22249;DHT22;67538;52.180;5.646;2023-05-10T00:22:01;12.90;99.90
22249;DHT22;67538;52.180;5.646;2023-05-10T00:24:28;12.90;99.90
22249;DHT22;67538;52.180;5.646;2023-05-10T00:26:55;12.90;99.90
22249;DHT22;67538;52.180;5.646;2023-05-10T00:29:22;12.90;99.90
22249;DHT22;67538;52.180;5.646;2023-05-10T00:31:51;12.90;99.90
22249;DHT22;67538;52.180;5.646;2023-05-10T00:34:18;12.90;99.90
22249;DHT22;67538;52.180;5.646;2023-05-10T00:36:45;12.90;99.90
22249;DHT22;67538;52.180;5.646;2023-05-10T00:39:12;12.90;99.90
22249;DHT22;67538;52.180;5.646;2023-05-10T00:41:39;12.90;99.90
22249;DHT22;67538;52.180;5.646;2023-05-10T00:44:06;12.80;99.90
22249;DHT22;67538;52.180;5.646;2023-05-10T00:46:33;12.80;99.90
22249;DHT22;67538;52.180;5.646;2023-05-10T00:49:02;12.80;99.90
22249;DHT22;67538;52.180;5.646;2023-05-10T00:51:30;12.80;99.90
22249;DHT22;67538;52.180;5.646;2023-05-10T00:53:58;12.80;99.90
22249;DHT22;67538;52.180;5.646;2023-05-10T00:56:25;12.80;99.90
22249;DHT22;67538;52.180;5.646;2023-05-10T00:58:55;12.80;99.90
22249;DHT22;67538;52.180;5.646;2023-05-10T01:01:22;12.80;99.90
22249;DHT22;67538;52.180;5.646;2023-05-10T01:03:50;12.80;99.90
22249;DHT22;67538;52.180;5.646;2023-05-10T01:06:19;12.80;99.90
22249;DHT22;67538;52.180;5.646;2023-05-10T01:08:46;12.80;99.90
22249;DHT22;67538;52.180;5.646;2023-05-10T01:11:14;12.80;99.90
22249;DHT22;67538;52.180;5.646;2023-05-10T01:13:42;12.80;99.90
22249;DHT22;67538;52.180;5.646;2023-05-10T01:16:09;12.80;99.90
22249;DHT22;67538;52.180;5.646;2023-05-10T01:18:39;12.80;99.90
22249;DHT22;67538;52.180;5.646;2023-05-10T01:21:17;12.80;99.90
22249;DHT22;67538;52.180;5.646;2023-05-10T01:24:09;12.80;99.90
22249;DHT22;67538;52.180;5.646;2023-05-10T01:30:08;12.80;99.90
22249;DHT22;67538;52.180;5.646;2023-05-10T01:32:43;12.80;99.90
22249;DHT22;67538;52.180;5.646;2023-05-10T01:35:16;12.80;99.90
22249;DHT22;67538;52.180;5.646;2023-05-10T01:37:49;12.80;99.90
22249;DHT22;67538;52.180;5.646;2023-05-10T01:40:21;12.70;99.90
22249;DHT22;67538;52.180;5.646;2023-05-10T01:42:53;12.70;99.90
22249;DHT22;67538;52.180;5.646;2023-05-10T01:45:27;12.70;99.90
22249;DHT22;67538;52.180;5.646;2023-05-10T01:48:03;12.70;99.90
22249;DHT22;67538;52.180;5.646;2023-05-10T01:50:32;12.70;99.90
22249;DHT22;67538;52.180;5.646;2023-05-10T01:53:02;12.80;99.90
22249;DHT22;67538;52.180;5.646;2023-05-10T01:55:32;12.70;99.90
22249;DHT22;67538;52.180;5.646;2023-05-10T01:58:04;12.80;99.90
22249;DHT22;67538;52.180;5.646;2023-05-10T02:00:32;12.80;99.90
22249;DHT22;67538;52.180;5.646;2023-05-10T02:03:05;12.80;99.90
22249;DHT22;67538;52.180;5.646;2023-05-10T02:05:33;12.80;99.90
22249;DHT22;67538;52.180;5.646;2023-05-10T02:08:03;12.80;99.90
22249;DHT22;67538;52.180;5.646;2023-05-10T02:10:33;12.80;99.90
22249;DHT22;67538;52.180;5.646;2023-05-10T02:13:02;12.80;99.90
22249;DHT22;67538;52.180;5.646;2023-05-10T02:15:29;12.80;99.90
22249;DHT22;67538;52.180;5.646;2023-05-10T02:17:57;12.80;99.90
22249;DHT22;67538;52.180;5.646;2023-05-10T02:20:27;12.80;99.90
22249;DHT22;67538;52.180;5.646;2023-05-10T02:22:55;12.80;99.90
22249;DHT22;67538;52.180;5.646;2023-05-10T02:25:23;12.80;99.90
22249;DHT22;67538;52.180;5.646;2023-05-10T02:27:53;12.80;99.90
22249;DHT22;67538;52.180;5.646;2023-05-10T02:30:21;12.80;99.90
22249;DHT22;67538;52.180;5.646;2023-05-10T02:32:49;12.70;99.90
22249;DHT22;67538;52.180;5.646;2023-05-10T02:35:16;12.70;99.90
22249;DHT22;67538;52.180;5.646;2023-05-10T02:37:45;12.70;99.90
22249;DHT22;67538;52.180;5.646;2023-05-10T02:40:15;12.70;99.90
22249;DHT22;67538;52.180;5.646;2023-05-10T02:42:44;12.70;99.90
22249;DHT22;67538;52.180;5.646;2023-05-10T02:45:23;12.70;99.90
22249;DHT22;67538;52.180;5.646;2023-05-10T02:47:50;12.70;99.90
22249;DHT22;67538;52.180;5.646;2023-05-10T02:50:18;12.70;99.90
22249;DHT22;67538;52.180;5.646;2023-05-10T02:52:47;12.70;99.90
22249;DHT22;67538;52.180;5.646;2023-05-10T02:55:21;12.70;99.90
22249;DHT22;67538;52.180;5.646;2023-05-10T02:57:52;12.70;99.90
22249;DHT22;67538;52.180;5.646;2023-05-10T03:00:19;12.70;99.90
22249;DHT22;67538;52.180;5.646;2023-05-10T03:02:46;12.80;99.90
22249;DHT22;67538;52.180;5.646;2023-05-10T03:05:13;12.70;99.90
22249;DHT22;67538;52.180;5.646;2023-05-10T03:07:40;12.80;99.90
22249;DHT22;67538;52.180;5.646;2023-05-10T03:10:09;12.80;99.90
22249;DHT22;67538;52.180;5.646;2023-05-10T03:12:52;12.70;99.90
22249;DHT22;67538;52.180;5.646;2023-05-10T03:15:31;12.80;99.90
22249;DHT22;67538;52.180;5.646;2023-05-10T03:18:04;12.80;99.90
22249;DHT22;67538;52.180;5.646;2023-05-10T03:20:36;12.70;99.90
22249;DHT22;67538;52.180;5.646;2023-05-10T03:23:07;12.70;99.90
22249;DHT22;67538;52.180;5.646;2023-05-10T03:25:40;12.70;99.90
22249;DHT22;67538;52.180;5.646;2023-05-10T03:28:09;12.70;99.90
22249;DHT22;67538;52.180;5.646;2023-05-10T03:30:37;12.70;99.90
22249;DHT22;67538;52.180;5.646;2023-05-10T03:33:06;12.70;99.90
22249;DHT22;67538;52.180;5.646;2023-05-10T03:35:33;12.70;99.90
22249;DHT22;67538;52.180;5.646;2023-05-10T03:38:01;12.60;99.90
22249;DHT22;67538;52.180;5.646;2023-05-10T03:40:28;12.60;99.90
22249;DHT22;67538;52.180;5.646;2023-05-10T03:42:59;12.60;99.90
22249;DHT22;67538;52.180;5.646;2023-05-10T03:45:26;12.60;99.90
22249;DHT22;67538;52.180;5.646;2023-05-10T03:47:53;12.60;99.90
22249;DHT22;67538;52.180;5.646;2023-05-10T03:50:21;12.50;99.90
22249;DHT22;67538;52.180;5.646;2023-05-10T03:52:48;12.50;99.90
22249;DHT22;67538;52.180;5.646;2023-05-10T03:55:15;12.40;99.90
22249;DHT22;67538;52.180;5.646;2023-05-10T03:57:42;12.40;99.90
22249;DHT22;67538;52.180;5.646;2023-05-10T04:00:11;12.40;99.90
22249;DHT22;67538;52.180;5.646;2023-05-10T04:02:38;12.40;99.90
22249;DHT22;67538;52.180;5.646;2023-05-10T04:05:06;12.40;99.90
22249;DHT22;67538;52.180;5.646;2023-05-10T04:07:33;12.40;99.90
22249;DHT22;67538;52.180;5.646;2023-05-10T04:10:00;12.40;99.90
22249;DHT22;67538;52.180;5.646;2023-05-10T04:12:27;12.40;99.90
22249;DHT22;67538;52.180;5.646;2023-05-10T04:14:54;12.40;99.90
22249;DHT22;67538;52.180;5.646;2023-05-10T04:17:22;12.40;99.90
22249;DHT22;67538;52.180;5.646;2023-05-10T04:19:49;12.30;99.90
22249;DHT22;67538;52.180;5.646;2023-05-10T04:22:18;12.30;99.90
22249;DHT22;67538;52.180;5.646;2023-05-10T04:24:45;12.30;99.90
22249;DHT22;67538;52.180;5.646;2023-05-10T04:27:12;12.30;99.90
22249;DHT22;67538;52.180;5.646;2023-05-10T04:29:39;12.20;99.90
22249;DHT22;67538;52.180;5.646;2023-05-10T04:32:07;12.20;99.90
22249;DHT22;67538;52.180;5.646;2023-05-10T04:34:37;12.30;99.90
22249;DHT22;67538;52.180;5.646;2023-05-10T04:37:04;12.20;99.90
22249;DHT22;67538;52.180;5.646;2023-05-10T04:39:31;12.20;99.90
22249;DHT22;67538;52.180;5.646;2023-05-10T04:41:59;12.20;99.90
22249;DHT22;67538;52.180;5.646;2023-05-10T04:44:26;12.20;99.90
22249;DHT22;67538;52.180;5.646;2023-05-10T04:46:53;12.20;99.90
22249;DHT22;67538;52.180;5.646;2023-05-10T04:49:20;12.20;99.90
22249;DHT22;67538;52.180;5.646;2023-05-10T04:51:48;12.20;99.90
22249;DHT22;67538;52.180;5.646;2023-05-10T04:54:16;12.20;99.90
22249;DHT22;67538;52.180;5.646;2023-05-10T04:56:43;12.20;99.90
22249;DHT22;67538;52.180;5.646;2023-05-10T04:59:10;12.30;99.90
22249;DHT22;67538;52.180;5.646;2023-05-10T05:01:37;12.30;99.90
22249;DHT22;67538;52.180;5.646;2023-05-10T05:04:04;12.30;99.90
22249;DHT22;67538;52.180;5.646;2023-05-10T05:06:32;12.30;99.90
22249;DHT22;67538;52.180;5.646;2023-05-10T05:09:00;12.30;99.90
22249;DHT22;67538;52.180;5.646;2023-05-10T05:11:28;12.20;99.90
22249;DHT22;67538;52.180;5.646;2023-05-10T05:13:55;12.30;99.90
22249;DHT22;67538;52.180;5.646;2023-05-10T05:16:24;12.30;99.90
22249;DHT22;67538;52.180;5.646;2023-05-10T05:18:51;12.30;99.90
22249;DHT22;67538;52.180;5.646;2023-05-10T05:21:19;12.30;99.90
22249;DHT22;67538;52.180;5.646;2023-05-10T05:23:47;12.30;99.90
22249;DHT22;67538;52.180;5.646;2023-05-10T05:26:15;12.30;99.90
22249;DHT22;67538;52.180;5.646;2023-05-10T05:28:42;12.30;99.90
22249;DHT22;67538;52.180;5.646;2023-05-10T05:31:09;12.30;99.90
22249;DHT22;67538;52.180;5.646;2023-05-10T05:33:37;12.30;99.90
22249;DHT22;67538;52.180;5.646;2023-05-10T05:36:05;12.30;99.90
22249;DHT22;67538;52.180;5.646;2023-05-10T05:38:32;12.30;99.90
22249;DHT22;67538;52.180;5.646;2023-05-10T05:40:59;12.40;99.90
22249;DHT22;67538;52.180;5.646;2023-05-10T05:43:27;12.30;99.90
22249;DHT22;67538;52.180;5.646;2023-05-10T05:45:54;12.30;99.90
22249;DHT22;67538;52.180;5.646;2023-05-10T05:48:23;12.30;99.90
22249;DHT22;67538;52.180;5.646;2023-05-10T05:50:53;12.30;99.90
22249;DHT22;67538;52.180;5.646;2023-05-10T05:53:20;12.40;99.90
22249;DHT22;67538;52.180;5.646;2023-05-10T05:55:51;12.40;99.90
22249;DHT22;67538;52.180;5.646;2023-05-10T05:58:19;12.50;99.90
22249;DHT22;67538;52.180;5.646;2023-05-10T06:00:48;12.50;99.90
22249;DHT22;67538;52.180;5.646;2023-05-10T06:03:15;12.50;99.90
22249;DHT22;67538;52.180;5.646;2023-05-10T06:05:42;12.50;99.90
22249;DHT22;67538;52.180;5.646;2023-05-10T06:08:09;12.50;99.90
22249;DHT22;67538;52.180;5.646;2023-05-10T06:10:36;12.50;99.90
22249;DHT22;67538;52.180;5.646;2023-05-10T06:13:03;12.50;99.90
22249;DHT22;67538;52.180;5.646;2023-05-10T06:15:30;12.50;99.90
22249;DHT22;67538;52.180;5.646;2023-05-10T06:17:59;12.50;99.90
22249;DHT22;67538;52.180;5.646;2023-05-10T06:20:26;12.50;99.90
22249;DHT22;67538;52.180;5.646;2023-05-10T06:22:53;12.50;99.90
22249;DHT22;67538;52.180;5.646;2023-05-10T06:25:20;12.50;99.90
22249;DHT22;67538;52.180;5.646;2023-05-10T06:27:47;12.50;99.90
22249;DHT22;67538;52.180;5.646;2023-05-10T06:30:15;12.50;99.90
22249;DHT22;67538;52.180;5.646;2023-05-10T06:32:42;12.40;99.90
22249;DHT22;67538;52.180;5.646;2023-05-10T06:35:12;12.50;99.90
22249;DHT22;67538;52.180;5.646;2023-05-10T06:37:39;12.50;99.90
22249;DHT22;67538;52.180;5.646;2023-05-10T06:40:07;12.40;99.90
22249;DHT22;67538;52.180;5.646;2023-05-10T06:42:34;12.40;99.90
22249;DHT22;67538;52.180;5.646;2023-05-10T06:45:02;12.40;99.90
22249;DHT22;67538;52.180;5.646;2023-05-10T06:47:29;12.40;99.90
22249;DHT22;67538;52.180;5.646;2023-05-10T06:49:56;12.40;99.90
22249;DHT22;67538;52.180;5.646;2023-05-10T06:52:24;12.40;99.90
22249;DHT22;67538;52.180;5.646;2023-05-10T06:54:51;12.50;99.90
22249;DHT22;67538;52.180;5.646;2023-05-10T06:57:18;12.50;99.90
22249;DHT22;67538;52.180;5.646;2023-05-10T06:59:46;12.50;99.90
22249;DHT22;67538;52.180;5.646;2023-05-10T07:02:13;12.50;99.90
22249;DHT22;67538;52.180;5.646;2023-05-10T07:04:40;12.50;99.90
22249;DHT22;67538;52.180;5.646;2023-05-10T07:07:07;12.60;99.90
22249;DHT22;67538;52.180;5.646;2023-05-10T07:09:36;12.60;99.90
22249;DHT22;67538;52.180;5.646;2023-05-10T07:12:04;12.60;99.90
22249;DHT22;67538;52.180;5.646;2023-05-10T07:14:31;12.60;99.90
22249;DHT22;67538;52.180;5.646;2023-05-10T07:16:58;12.60;99.90
22249;DHT22;67538;52.180;5.646;2023-05-10T07:19:25;12.60;99.90
22249;DHT22;67538;52.180;5.646;2023-05-10T07:21:52;12.60;99.90
22249;DHT22;67538;52.180;5.646;2023-05-10T07:24:19;12.70;99.90
22249;DHT22;67538;52.180;5.646;2023-05-10T07:26:47;12.70;99.90
22249;DHT22;67538;52.180;5.646;2023-05-10T07:29:14;12.80;99.90
22249;DHT22;67538;52.180;5.646;2023-05-10T07:31:41;12.80;99.90
22249;DHT22;67538;52.180;5.646;2023-05-10T07:34:08;12.90;99.90
22249;DHT22;67538;52.180;5.646;2023-05-10T07:36:35;12.90;99.90
22249;DHT22;67538;52.180;5.646;2023-05-10T07:39:02;12.90;99.90
22249;DHT22;67538;52.180;5.646;2023-05-10T07:41:30;12.90;99.90
22249;DHT22;67538;52.180;5.646;2023-05-10T07:43:59;12.90;99.90
22249;DHT22;67538;52.180;5.646;2023-05-10T07:46:26;12.90;99.90
22249;DHT22;67538;52.180;5.646;2023-05-10T07:48:54;12.90;99.90
22249;DHT22;67538;52.180;5.646;2023-05-10T07:51:21;12.90;99.90
22249;DHT22;67538;52.180;5.646;2023-05-10T07:53:48;12.90;99.90
22249;DHT22;67538;52.180;5.646;2023-05-10T07:56:23;12.90;99.90
22249;DHT22;67538;52.180;5.646;2023-05-10T07:58:52;13.00;99.90
22249;DHT22;67538;52.180;5.646;2023-05-10T08:01:21;13.10;99.90
22249;DHT22;67538;52.180;5.646;2023-05-10T08:03:49;13.20;99.90
22249;DHT22;67538;52.180;5.646;2023-05-10T08:06:17;13.30;99.90
22249;DHT22;67538;52.180;5.646;2023-05-10T08:08:45;13.40;99.90
22249;DHT22;67538;52.180;5.646;2023-05-10T08:11:14;13.40;99.90
22249;DHT22;67538;52.180;5.646;2023-05-10T08:13:42;13.40;99.90
22249;DHT22;67538;52.180;5.646;2023-05-10T08:16:09;13.40;99.90
22249;DHT22;67538;52.180;5.646;2023-05-10T08:18:38;13.30;99.90
22249;DHT22;67538;52.180;5.646;2023-05-10T08:21:05;13.30;99.90
22249;DHT22;67538;52.180;5.646;2023-05-10T08:23:32;13.30;99.90
22249;DHT22;67538;52.180;5.646;2023-05-10T08:26:00;13.20;99.90
22249;DHT22;67538;52.180;5.646;2023-05-10T08:28:27;13.20;99.90
22249;DHT22;67538;52.180;5.646;2023-05-10T08:30:54;13.20;99.90
22249;DHT22;67538;52.180;5.646;2023-05-10T08:33:21;13.20;99.90
22249;DHT22;67538;52.180;5.646;2023-05-10T08:35:49;13.20;99.90
22249;DHT22;67538;52.180;5.646;2023-05-10T08:38:18;13.20;99.90
22249;DHT22;67538;52.180;5.646;2023-05-10T08:40:45;13.20;99.90
22249;DHT22;67538;52.180;5.646;2023-05-10T08:43:14;13.30;99.90
22249;DHT22;67538;52.180;5.646;2023-05-10T08:45:44;13.40;99.90
22249;DHT22;67538;52.180;5.646;2023-05-10T08:48:13;13.40;99.90
22249;DHT22;67538;52.180;5.646;2023-05-10T08:50:41;13.30;99.90
22249;DHT22;67538;52.180;5.646;2023-05-10T08:53:12;13.20;99.90
22249;DHT22;67538;52.180;5.646;2023-05-10T08:55:40;13.20;99.90
22249;DHT22;67538;52.180;5.646;2023-05-10T08:58:09;13.10;99.90
22249;DHT22;67538;52.180;5.646;2023-05-10T09:00:36;13.10;99.90
22249;DHT22;67538;52.180;5.646;2023-05-10T09:03:04;13.10;99.90
22249;DHT22;67538;52.180;5.646;2023-05-10T09:05:32;13.10;99.90
22249;DHT22;67538;52.180;5.646;2023-05-10T09:07:59;13.20;99.90
22249;DHT22;67538;52.180;5.646;2023-05-10T09:10:28;13.30;99.90
22249;DHT22;67538;52.180;5.646;2023-05-10T09:12:57;13.30;99.90
22249;DHT22;67538;52.180;5.646;2023-05-10T09:15:24;13.40;99.90
22249;DHT22;67538;52.180;5.646;2023-05-10T09:17:51;13.40;99.90
22249;DHT22;67538;52.180;5.646;2023-05-10T09:20:19;13.30;99.90
22249;DHT22;67538;52.180;5.646;2023-05-10T09:22:46;13.30;99.90
22249;DHT22;67538;52.180;5.646;2023-05-10T09:25:14;13.30;99.90
22249;DHT22;67538;52.180;5.646;2023-05-10T09:27:45;13.30;99.90
22249;DHT22;67538;52.180;5.646;2023-05-10T09:30:16;13.40;99.90
22249;DHT22;67538;52.180;5.646;2023-05-10T09:32:44;13.50;99.90
22249;DHT22;67538;52.180;5.646;2023-05-10T09:35:12;13.50;99.90
22249;DHT22;67538;52.180;5.646;2023-05-10T09:37:40;13.50;99.90
22249;DHT22;67538;52.180;5.646;2023-05-10T09:40:11;13.60;99.90
22249;DHT22;67538;52.180;5.646;2023-05-10T09:42:40;13.50;99.90
22249;DHT22;67538;52.180;5.646;2023-05-10T09:45:09;13.60;99.90
22249;DHT22;67538;52.180;5.646;2023-05-10T09:47:36;13.60;99.90
22249;DHT22;67538;52.180;5.646;2023-05-10T09:50:04;13.80;99.90
22249;DHT22;67538;52.180;5.646;2023-05-10T09:52:46;13.90;99.90
22249;DHT22;67538;52.180;5.646;2023-05-10T09:55:13;14.00;99.90
22249;DHT22;67538;52.180;5.646;2023-05-10T09:57:40;14.10;99.90
22249;DHT22;67538;52.180;5.646;2023-05-10T10:00:09;14.20;99.90
22249;DHT22;67538;52.180;5.646;2023-05-10T10:02:38;14.30;99.90
22249;DHT22;67538;52.180;5.646;2023-05-10T10:05:07;14.50;99.90
22249;DHT22;67538;52.180;5.646;2023-05-10T10:07:34;14.70;99.90
22249;DHT22;67538;52.180;5.646;2023-05-10T10:10:01;14.70;99.90
22249;DHT22;67538;52.180;5.646;2023-05-10T10:12:30;14.70;99.90
22249;DHT22;67538;52.180;5.646;2023-05-10T10:14:59;14.70;99.90
22249;DHT22;67538;52.180;5.646;2023-05-10T10:17:30;14.90;99.90
22249;DHT22;67538;52.180;5.646;2023-05-10T10:19:57;15.00;99.90
22249;DHT22;67538;52.180;5.646;2023-05-10T10:22:25;14.90;99.90
22249;DHT22;67538;52.180;5.646;2023-05-10T10:24:52;15.00;99.90
22249;DHT22;67538;52.180;5.646;2023-05-10T10:27:24;15.20;99.90
22249;DHT22;67538;52.180;5.646;2023-05-10T10:30:01;15.50;99.90
22249;DHT22;67538;52.180;5.646;2023-05-10T10:32:42;15.70;99.90
22249;DHT22;67538;52.180;5.646;2023-05-10T10:35:15;15.70;99.90
22249;DHT22;67538;52.180;5.646;2023-05-10T10:37:46;15.70;99.90
22249;DHT22;67538;52.180;5.646;2023-05-10T10:40:23;15.60;99.90
22249;DHT22;67538;52.180;5.646;2023-05-10T10:42:51;15.60;99.90
22249;DHT22;67538;52.180;5.646;2023-05-10T10:45:20;15.50;99.90
22249;DHT22;67538;52.180;5.646;2023-05-10T10:47:50;15.50;99.90
22249;DHT22;67538;52.180;5.646;2023-05-10T10:50:20;15.50;99.90
22249;DHT22;67538;52.180;5.646;2023-05-10T10:52:47;15.50;99.90
22249;DHT22;67538;52.180;5.646;2023-05-10T10:55:17;15.60;99.90
22249;DHT22;67538;52.180;5.646;2023-05-10T10:57:49;15.70;99.90
22249;DHT22;67538;52.180;5.646;2023-05-10T11:00:30;15.70;99.90
22249;DHT22;67538;52.180;5.646;2023-05-10T11:03:03;15.70;99.90
22249;DHT22;67538;52.180;5.646;2023-05-10T11:05:41;15.60;99.90
22249;DHT22;67538;52.180;5.646;2023-05-10T11:08:10;15.50;99.90
22249;DHT22;67538;52.180;5.646;2023-05-10T11:10:39;15.50;99.90
22249;DHT22;67538;52.180;5.646;2023-05-10T11:13:07;15.60;99.90
22249;DHT22;67538;52.180;5.646;2023-05-10T11:15:36;15.60;99.90
22249;DHT22;67538;52.180;5.646;2023-05-10T11:18:23;15.60;99.90
22249;DHT22;67538;52.180;5.646;2023-05-10T11:20:51;15.50;99.90
22249;DHT22;67538;52.180;5.646;2023-05-10T11:23:18;15.60;99.90
22249;DHT22;67538;52.180;5.646;2023-05-10T11:25:48;15.60;99.90
22249;DHT22;67538;52.180;5.646;2023-05-10T11:28:17;15.50;99.90
22249;DHT22;67538;52.180;5.646;2023-05-10T11:30:45;15.50;99.90
22249;DHT22;67538;52.180;5.646;2023-05-10T11:33:16;15.60;99.90
22249;DHT22;67538;52.180;5.646;2023-05-10T11:35:46;15.70;99.90
22249;DHT22;67538;52.180;5.646;2023-05-10T11:38:13;15.60;99.90
22249;DHT22;67538;52.180;5.646;2023-05-10T11:40:41;15.60;99.90
22249;DHT22;67538;52.180;5.646;2023-05-10T11:43:09;15.60;99.90
22249;DHT22;67538;52.180;5.646;2023-05-10T11:45:37;15.60;99.90
22249;DHT22;67538;52.180;5.646;2023-05-10T11:48:05;15.60;99.90
22249;DHT22;67538;52.180;5.646;2023-05-10T11:50:32;15.60;99.90
22249;DHT22;67538;52.180;5.646;2023-05-10T11:53:00;15.70;99.90
22249;DHT22;67538;52.180;5.646;2023-05-10T11:55:27;15.80;99.90
22249;DHT22;67538;52.180;5.646;2023-05-10T11:58:00;15.70;99.90
22249;DHT22;67538;52.180;5.646;2023-05-10T12:00:28;15.70;99.90
22249;DHT22;67538;52.180;5.646;2023-05-10T12:02:55;15.70;99.90
22249;DHT22;67538;52.180;5.646;2023-05-10T12:05:23;15.70;99.90
22249;DHT22;67538;52.180;5.646;2023-05-10T12:07:50;15.70;99.90
22249;DHT22;67538;52.180;5.646;2023-05-10T12:10:25;15.70;99.90
22249;DHT22;67538;52.180;5.646;2023-05-10T12:12:53;15.60;99.90
22249;DHT22;67538;52.180;5.646;2023-05-10T12:15:21;15.60;99.90
22249;DHT22;67538;52.180;5.646;2023-05-10T12:17:49;15.70;99.90
22249;DHT22;67538;52.180;5.646;2023-05-10T12:20:17;15.60;99.90
22249;DHT22;67538;52.180;5.646;2023-05-10T12:22:49;15.70;99.90
22249;DHT22;67538;52.180;5.646;2023-05-10T12:25:18;15.70;99.90
22249;DHT22;67538;52.180;5.646;2023-05-10T12:27:50;15.80;99.90
22249;DHT22;67538;52.180;5.646;2023-05-10T12:30:24;15.90;99.90
22249;DHT22;67538;52.180;5.646;2023-05-10T12:32:52;15.90;99.90
22249;DHT22;67538;52.180;5.646;2023-05-10T12:35:19;16.00;99.90
22249;DHT22;67538;52.180;5.646;2023-05-10T12:37:50;16.00;99.90
22249;DHT22;67538;52.180;5.646;2023-05-10T12:40:19;16.10;99.90
22249;DHT22;67538;52.180;5.646;2023-05-10T12:42:46;16.00;99.90
22249;DHT22;67538;52.180;5.646;2023-05-10T12:45:14;16.00;99.90
22249;DHT22;67538;52.180;5.646;2023-05-10T12:47:41;16.00;99.90
22249;DHT22;67538;52.180;5.646;2023-05-10T12:50:08;16.10;99.90
22249;DHT22;67538;52.180;5.646;2023-05-10T12:52:36;16.20;99.90
22249;DHT22;67538;52.180;5.646;2023-05-10T12:55:03;16.30;99.90
22249;DHT22;67538;52.180;5.646;2023-05-10T12:57:32;16.20;99.90
22249;DHT22;67538;52.180;5.646;2023-05-10T12:59:59;16.20;99.90
22249;DHT22;67538;52.180;5.646;2023-05-10T13:02:26;16.20;99.90
22249;DHT22;67538;52.180;5.646;2023-05-10T13:04:53;16.20;99.90
22249;DHT22;67538;52.180;5.646;2023-05-10T13:07:20;16.30;99.90
22249;DHT22;67538;52.180;5.646;2023-05-10T13:09:47;16.40;99.90
22249;DHT22;67538;52.180;5.646;2023-05-10T13:12:14;16.50;99.90
22249;DHT22;67538;52.180;5.646;2023-05-10T13:14:42;16.60;99.90
22249;DHT22;67538;52.180;5.646;2023-05-10T13:17:09;16.50;99.90
22249;DHT22;67538;52.180;5.646;2023-05-10T13:19:36;16.70;99.90
22249;DHT22;67538;52.180;5.646;2023-05-10T13:22:03;16.70;99.90
22249;DHT22;67538;52.180;5.646;2023-05-10T13:24:30;16.90;99.90
22249;DHT22;67538;52.180;5.646;2023-05-10T13:26:58;16.90;99.90
22249;DHT22;67538;52.180;5.646;2023-05-10T13:29:25;16.90;99.90
22249;DHT22;67538;52.180;5.646;2023-05-10T13:31:53;17.00;99.90
22249;DHT22;67538;52.180;5.646;2023-05-10T13:34:20;17.00;99.90
22249;DHT22;67538;52.180;5.646;2023-05-10T13:36:47;17.10;99.90
22249;DHT22;67538;52.180;5.646;2023-05-10T13:39:15;17.10;99.90
22249;DHT22;67538;52.180;5.646;2023-05-10T13:41:42;17.40;99.90
22249;DHT22;67538;52.180;5.646;2023-05-10T13:44:11;17.40;99.90
22249;DHT22;67538;52.180;5.646;2023-05-10T13:46:38;17.50;99.90
22249;DHT22;67538;52.180;5.646;2023-05-10T13:49:07;17.40;99.90
22249;DHT22;67538;52.180;5.646;2023-05-10T13:51:34;17.40;99.90
22249;DHT22;67538;52.180;5.646;2023-05-10T13:54:01;17.30;99.90
22249;DHT22;67538;52.180;5.646;2023-05-10T13:56:28;17.20;99.90
22249;DHT22;67538;52.180;5.646;2023-05-10T13:58:56;17.00;99.90
22249;DHT22;67538;52.180;5.646;2023-05-10T14:01:23;16.80;99.90
22249;DHT22;67538;52.180;5.646;2023-05-10T14:03:50;16.80;99.90
22249;DHT22;67538;52.180;5.646;2023-05-10T14:06:19;16.70;99.90
22249;DHT22;67538;52.180;5.646;2023-05-10T14:08:46;16.70;99.90
22249;DHT22;67538;52.180;5.646;2023-05-10T14:11:13;16.60;99.90
22249;DHT22;67538;52.180;5.646;2023-05-10T14:13:40;16.50;99.90
22249;DHT22;67538;52.180;5.646;2023-05-10T14:16:07;16.40;99.90
22249;DHT22;67538;52.180;5.646;2023-05-10T14:18:34;16.10;99.90
22249;DHT22;67538;52.180;5.646;2023-05-10T14:21:02;15.80;99.90
22249;DHT22;67538;52.180;5.646;2023-05-10T14:23:31;15.50;99.90
22249;DHT22;67538;52.180;5.646;2023-05-10T14:25:58;15.10;99.90
22249;DHT22;67538;52.180;5.646;2023-05-10T14:28:25;15.00;99.90
22249;DHT22;67538;52.180;5.646;2023-05-10T14:30:52;14.80;99.90
22249;DHT22;67538;52.180;5.646;2023-05-10T14:33:19;14.70;99.90
22249;DHT22;67538;52.180;5.646;2023-05-10T14:35:46;14.50;99.90
22249;DHT22;67538;52.180;5.646;2023-05-10T14:38:13;14.50;99.90
22249;DHT22;67538;52.180;5.646;2023-05-10T14:40:42;14.40;99.90
22249;DHT22;67538;52.180;5.646;2023-05-10T14:43:09;14.40;99.90
22249;DHT22;67538;52.180;5.646;2023-05-10T14:45:36;14.20;99.90
22249;DHT22;67538;52.180;5.646;2023-05-10T14:48:03;14.20;99.90
22249;DHT22;67538;52.180;5.646;2023-05-10T14:50:31;14.10;99.90
22249;DHT22;67538;52.180;5.646;2023-05-10T14:52:58;14.10;99.90
22249;DHT22;67538;52.180;5.646;2023-05-10T14:55:25;14.00;99.90
22249;DHT22;67538;52.180;5.646;2023-05-10T14:57:54;14.00;99.90
22249;DHT22;67538;52.180;5.646;2023-05-10T15:00:21;13.90;99.90
22249;DHT22;67538;52.180;5.646;2023-05-10T15:02:48;13.80;99.90
22249;DHT22;67538;52.180;5.646;2023-05-10T15:05:15;13.70;99.90
22249;DHT22;67538;52.180;5.646;2023-05-10T15:07:42;13.60;99.90
22249;DHT22;67538;52.180;5.646;2023-05-10T15:10:10;13.60;99.90
22249;DHT22;67538;52.180;5.646;2023-05-10T15:12:37;13.50;99.90
22249;DHT22;67538;52.180;5.646;2023-05-10T15:15:07;13.60;99.90
22249;DHT22;67538;52.180;5.646;2023-05-10T15:17:34;13.50;99.90
22249;DHT22;67538;52.180;5.646;2023-05-10T15:20:01;13.50;99.90
22249;DHT22;67538;52.180;5.646;2023-05-10T15:22:29;13.60;99.90
22249;DHT22;67538;52.180;5.646;2023-05-10T15:24:57;13.60;99.90
22249;DHT22;67538;52.180;5.646;2023-05-10T15:27:24;13.60;99.90
22249;DHT22;67538;52.180;5.646;2023-05-10T15:29:51;13.60;99.90
22249;DHT22;67538;52.180;5.646;2023-05-10T15:32:19;13.70;99.90
22249;DHT22;67538;52.180;5.646;2023-05-10T15:34:47;13.70;99.90
22249;DHT22;67538;52.180;5.646;2023-05-10T15:37:14;13.70;99.90
22249;DHT22;67538;52.180;5.646;2023-05-10T15:39:41;13.80;99.90
22249;DHT22;67538;52.180;5.646;2023-05-10T15:42:08;13.80;99.90